sensor_id;sensor_type;location;lat;lon;timestamp;P1;durP1;ratioP1;P2;durP2;ratioP2
17614;SDS011;8926;49.720;6.576;2023-04-29T00:01:29;0.40;;;0.40;;
17614;SDS011;8926;49.720;6.576;2023-04-29T00:03:54;0.40;;;0.40;;
17614;SDS011;8926;49.720;6.576;2023-04-29T00:06:20;1.67;;;0.53;;
17614;SDS011;8926;49.720;6.576;2023-04-29T00:08:46;0.40;;;0.40;;
17614;SDS011;8926;49.720;6.576;2023-04-29T00:11:11;0.30;;;0.30;;
17614;SDS011;8926;49.720;6.576;2023-04-29T00:13:37;0.40;;;0.40;;
17614;SDS011;8926;49.720;6.576;2023-04-29T00:16:04;0.40;;;0.40;;
17614;SDS011;8926;49.720;6.576;2023-04-29T00:18:31;0.37;;;0.37;;
17614;SDS011;8926;49.720;6.576;2023-04-29T00:20:56;0.30;;;0.30;;
17614;SDS011;8926;49.720;6.576;2023-04-29T00:23:22;0.37;;;0.37;;
17614;SDS011;8926;49.720;6.576;2023-04-29T00:25:47;0.20;;;0.20;;
17614;SDS011;8926;49.720;6.576;2023-04-29T00:28:12;0.30;;;0.30;;
17614;SDS011;8926;49.720;6.576;2023-04-29T00:30:38;0.33;;;0.33;;
17614;SDS011;8926;49.720;6.576;2023-04-29T00:33:03;0.40;;;0.40;;
17614;SDS011;8926;49.720;6.576;2023-04-29T00:35:28;0.50;;;0.50;;
17614;SDS011;8926;49.720;6.576;2023-04-29T00:37:53;0.40;;;0.40;;
17614;SDS011;8926;49.720;6.576;2023-04-29T00:40:19;0.40;;;0.40;;
17614;SDS011;8926;49.720;6.576;2023-04-29T00:42:44;0.40;;;0.40;;
17614;SDS011;8926;49.720;6.576;2023-04-29T00:45:10;0.57;;;0.57;;
17614;SDS011;8926;49.720;6.576;2023-04-29T00:47:36;0.50;;;0.50;;
17614;SDS011;8926;49.720;6.576;2023-04-29T00:50:02;0.67;;;0.67;;
17614;SDS011;8926;49.720;6.576;2023-04-29T00:52:29;0.60;;;0.60;;
17614;SDS011;8926;49.720;6.576;2023-04-29T00:54:58;0.50;;;0.50;;
17614;SDS011;8926;49.720;6.576;2023-04-29T00:57:24;0.60;;;0.60;;
17614;SDS011;8926;49.720;6.576;2023-04-29T00:59:53;0.50;;;0.50;;
17614;SDS011;8926;49.720;6.576;2023-04-29T01:02:19;0.53;;;0.53;;
17614;SDS011;8926;49.720;6.576;2023-04-29T01:04:45;0.83;;;0.60;;
17614;SDS011;8926;49.720;6.576;2023-04-29T01:10:06;0.53;;;0.53;;
17614;SDS011;8926;49.720;6.576;2023-04-29T01:17:55;0.70;;;0.70;;
17614;SDS011;8926;49.720;6.576;2023-04-29T01:20:25;0.70;;;0.70;;
17614;SDS011;8926;49.720;6.576;2023-04-29T01:22:50;0.37;;;0.33;;
17614;SDS011;8926;49.720;6.576;2023-04-29T01:25:16;0.70;;;0.60;;
17614;SDS011;8926;49.720;6.576;2023-04-29T01:33:54;0.50;;;0.50;;
17614;SDS011;8926;49.720;6.576;2023-04-29T01:39:13;0.70;;;0.70;;
17614;SDS011;8926;49.720;6.576;2023-04-29T01:41:43;0.50;;;0.50;;
17614;SDS011;8926;49.720;6.576;2023-04-29T01:44:14;0.77;;;0.70;;
17614;SDS011;8926;49.720;6.576;2023-04-29T01:46:42;0.70;;;0.70;;
17614;SDS011;8926;49.720;6.576;2023-04-29T01:49:14;1.00;;;1.00;;
17614;SDS011;8926;49.720;6.576;2023-04-29T01:51:39;1.00;;;1.00;;
17614;SDS011;8926;49.720;6.576;2023-04-29T01:54:04;0.50;;;0.50;;
17614;SDS011;8926;49.720;6.576;2023-04-29T01:56:30;0.70;;;0.70;;
17614;SDS011;8926;49.720;6.576;2023-04-29T01:58:55;1.30;;;1.20;;
17614;SDS011;8926;49.720;6.576;2023-04-29T02:01:21;1.70;;;1.60;;
17614;SDS011;8926;49.720;6.576;2023-04-29T02:03:46;2.00;;;1.80;;
17614;SDS011;8926;49.720;6.576;2023-04-29T02:06:11;3.27;;;2.67;;
17614;SDS011;8926;49.720;6.576;2023-04-29T02:08:36;1.80;;;1.70;;
17614;SDS011;8926;49.720;6.576;2023-04-29T02:11:02;2.10;;;1.90;;
17614;SDS011;8926;49.720;6.576;2023-04-29T02:13:27;2.93;;;2.73;;
17614;SDS011;8926;49.720;6.576;2023-04-29T02:15:52;3.30;;;3.10;;
17614;SDS011;8926;49.720;6.576;2023-04-29T02:18:18;3.00;;;2.80;;
17614;SDS011;8926;49.720;6.576;2023-04-29T02:20:43;2.10;;;2.00;;
17614;SDS011;8926;49.720;6.576;2023-04-29T02:23:08;2.30;;;2.20;;
17614;SDS011;8926;49.720;6.576;2023-04-29T02:25:34;2.30;;;2.20;;
17614;SDS011;8926;49.720;6.576;2023-04-29T02:27:59;2.47;;;2.37;;
17614;SDS011;8926;49.720;6.576;2023-04-29T02:30:24;2.17;;;2.03;;
17614;SDS011;8926;49.720;6.576;2023-04-29T02:32:50;2.40;;;2.20;;
17614;SDS011;8926;49.720;6.576;2023-04-29T02:35:15;3.30;;;3.10;;
17614;SDS011;8926;49.720;6.576;2023-04-29T02:37:40;2.70;;;2.50;;
17614;SDS011;8926;49.720;6.576;2023-04-29T02:40:06;2.70;;;2.50;;
17614;SDS011;8926;49.720;6.576;2023-04-29T02:42:32;2.23;;;2.13;;
17614;SDS011;8926;49.720;6.576;2023-04-29T02:44:57;2.63;;;2.43;;
17614;SDS011;8926;49.720;6.576;2023-04-29T02:47:22;1.70;;;1.60;;
17614;SDS011;8926;49.720;6.576;2023-04-29T02:49:48;1.60;;;1.50;;
17614;SDS011;8926;49.720;6.576;2023-04-29T02:52:13;1.60;;;1.50;;
17614;SDS011;8926;49.720;6.576;2023-04-29T02:54:38;1.40;;;1.40;;
17614;SDS011;8926;49.720;6.576;2023-04-29T02:57:04;1.30;;;1.20;;
17614;SDS011;8926;49.720;6.576;2023-04-29T02:59:29;1.43;;;1.33;;
17614;SDS011;8926;49.720;6.576;2023-04-29T03:01:54;1.60;;;1.50;;
17614;SDS011;8926;49.720;6.576;2023-04-29T03:04:20;1.47;;;1.47;;
17614;SDS011;8926;49.720;6.576;2023-04-29T03:06:45;1.73;;;1.63;;
17614;SDS011;8926;49.720;6.576;2023-04-29T03:09:10;2.10;;;2.00;;
17614;SDS011;8926;49.720;6.576;2023-04-29T03:11:37;2.30;;;2.10;;
17614;SDS011;8926;49.720;6.576;2023-04-29T03:14:02;1.80;;;1.70;;
17614;SDS011;8926;49.720;6.576;2023-04-29T03:16:28;2.83;;;2.63;;
17614;SDS011;8926;49.720;6.576;2023-04-29T03:18:54;3.00;;;2.80;;
17614;SDS011;8926;49.720;6.576;2023-04-29T03:21:19;2.10;;;2.00;;
17614;SDS011;8926;49.720;6.576;2023-04-29T03:23:44;2.10;;;2.00;;
17614;SDS011;8926;49.720;6.576;2023-04-29T03:26:10;2.10;;;2.00;;
17614;SDS011;8926;49.720;6.576;2023-04-29T03:28:35;1.70;;;1.60;;
17614;SDS011;8926;49.720;6.576;2023-04-29T03:31:01;2.10;;;2.00;;
17614;SDS011;8926;49.720;6.576;2023-04-29T03:33:27;2.87;;;2.70;;
17614;SDS011;8926;49.720;6.576;2023-04-29T03:35:52;2.60;;;2.50;;
17614;SDS011;8926;49.720;6.576;2023-04-29T03:38:17;2.90;;;2.70;;
17614;SDS011;8926;49.720;6.576;2023-04-29T03:40:43;2.50;;;2.40;;
17614;SDS011;8926;49.720;6.576;2023-04-29T03:43:09;2.40;;;2.30;;
17614;SDS011;8926;49.720;6.576;2023-04-29T03:45:35;3.20;;;3.00;;
17614;SDS011;8926;49.720;6.576;2023-04-29T03:48:00;2.90;;;2.70;;
17614;SDS011;8926;49.720;6.576;2023-04-29T03:50:27;2.20;;;2.10;;
17614;SDS011;8926;49.720;6.576;2023-04-29T03:52:52;1.90;;;1.80;;
17614;SDS011;8926;49.720;6.576;2023-04-29T03:55:17;1.77;;;1.67;;
17614;SDS011;8926;49.720;6.576;2023-04-29T03:57:43;2.60;;;2.40;;
17614;SDS011;8926;49.720;6.576;2023-04-29T04:00:08;2.37;;;2.17;;
17614;SDS011;8926;49.720;6.576;2023-04-29T04:02:34;2.00;;;1.90;;
17614;SDS011;8926;49.720;6.576;2023-04-29T04:04:59;1.40;;;1.40;;
17614;SDS011;8926;49.720;6.576;2023-04-29T04:07:25;1.80;;;1.70;;
17614;SDS011;8926;49.720;6.576;2023-04-29T04:09:50;1.80;;;1.70;;
17614;SDS011;8926;49.720;6.576;2023-04-29T04:12:15;1.43;;;1.33;;
17614;SDS011;8926;49.720;6.576;2023-04-29T04:14:41;1.30;;;1.30;;
17614;SDS011;8926;49.720;6.576;2023-04-29T04:17:06;1.23;;;1.23;;
17614;SDS011;8926;49.720;6.576;2023-04-29T04:19:31;1.63;;;1.57;;
17614;SDS011;8926;49.720;6.576;2023-04-29T04:21:57;2.10;;;2.00;;
17614;SDS011;8926;49.720;6.576;2023-04-29T04:24:22;1.80;;;1.70;;
17614;SDS011;8926;49.720;6.576;2023-04-29T04:26:48;1.80;;;1.70;;
17614;SDS011;8926;49.720;6.576;2023-04-29T04:29:13;1.50;;;1.40;;
17614;SDS011;8926;49.720;6.576;2023-04-29T04:31:38;1.87;;;1.77;;
17614;SDS011;8926;49.720;6.576;2023-04-29T04:34:04;1.27;;;1.27;;
17614;SDS011;8926;49.720;6.576;2023-04-29T04:36:29;1.30;;;1.30;;
17614;SDS011;8926;49.720;6.576;2023-04-29T04:38:55;1.70;;;1.60;;
17614;SDS011;8926;49.720;6.576;2023-04-29T04:41:20;1.80;;;1.70;;
17614;SDS011;8926;49.720;6.576;2023-04-29T04:43:45;2.30;;;2.20;;
17614;SDS011;8926;49.720;6.576;2023-04-29T04:46:14;1.87;;;1.77;;
17614;SDS011;8926;49.720;6.576;2023-04-29T04:48:41;2.30;;;2.20;;
17614;SDS011;8926;49.720;6.576;2023-04-29T04:51:10;1.83;;;1.73;;
17614;SDS011;8926;49.720;6.576;2023-04-29T04:53:36;2.30;;;2.20;;
17614;SDS011;8926;49.720;6.576;2023-04-29T04:56:02;2.20;;;2.10;;
17614;SDS011;8926;49.720;6.576;2023-04-29T04:58:27;1.80;;;1.70;;
17614;SDS011;8926;49.720;6.576;2023-04-29T05:00:52;2.00;;;1.90;;
17614;SDS011;8926;49.720;6.576;2023-04-29T05:03:18;2.00;;;1.90;;
17614;SDS011;8926;49.720;6.576;2023-04-29T05:05:43;2.00;;;1.90;;
17614;SDS011;8926;49.720;6.576;2023-04-29T05:08:08;1.70;;;1.60;;
17614;SDS011;8926;49.720;6.576;2023-04-29T05:10:37;1.50;;;1.50;;
17614;SDS011;8926;49.720;6.576;2023-04-29T05:13:02;1.90;;;1.80;;
17614;SDS011;8926;49.720;6.576;2023-04-29T05:15:27;1.60;;;1.50;;
17614;SDS011;8926;49.720;6.576;2023-04-29T05:17:53;2.50;;;2.30;;
17614;SDS011;8926;49.720;6.576;2023-04-29T05:20:18;1.80;;;1.70;;
17614;SDS011;8926;49.720;6.576;2023-04-29T05:22:45;2.00;;;1.90;;
17614;SDS011;8926;49.720;6.576;2023-04-29T05:25:10;2.70;;;2.60;;
17614;SDS011;8926;49.720;6.576;2023-04-29T05:27:36;2.30;;;2.10;;
17614;SDS011;8926;49.720;6.576;2023-04-29T05:30:01;2.33;;;2.17;;
17614;SDS011;8926;49.720;6.576;2023-04-29T05:32:26;1.80;;;1.70;;
17614;SDS011;8926;49.720;6.576;2023-04-29T05:34:52;1.90;;;1.80;;
17614;SDS011;8926;49.720;6.576;2023-04-29T05:37:17;2.10;;;2.00;;
17614;SDS011;8926;49.720;6.576;2023-04-29T05:39:42;1.93;;;1.83;;
17614;SDS011;8926;49.720;6.576;2023-04-29T05:42:08;3.07;;;2.87;;
17614;SDS011;8926;49.720;6.576;2023-04-29T05:44:33;2.80;;;2.60;;
17614;SDS011;8926;49.720;6.576;2023-04-29T05:46:58;3.00;;;2.80;;
17614;SDS011;8926;49.720;6.576;2023-04-29T05:49:24;3.03;;;2.83;;
17614;SDS011;8926;49.720;6.576;2023-04-29T05:51:49;3.17;;;2.97;;
17614;SDS011;8926;49.720;6.576;2023-04-29T05:54:15;4.03;;;3.73;;
17614;SDS011;8926;49.720;6.576;2023-04-29T05:56:40;4.40;;;4.10;;
17614;SDS011;8926;49.720;6.576;2023-04-29T05:59:05;4.43;;;4.13;;
17614;SDS011;8926;49.720;6.576;2023-04-29T06:01:31;4.13;;;3.83;;
17614;SDS011;8926;49.720;6.576;2023-04-29T06:03:57;4.13;;;3.83;;
17614;SDS011;8926;49.720;6.576;2023-04-29T06:06:22;4.73;;;4.43;;
17614;SDS011;8926;49.720;6.576;2023-04-29T06:08:47;5.10;;;4.70;;
17614;SDS011;8926;49.720;6.576;2023-04-29T06:11:13;5.40;;;5.00;;
17614;SDS011;8926;49.720;6.576;2023-04-29T06:13:38;4.50;;;4.20;;
17614;SDS011;8926;49.720;6.576;2023-04-29T06:16:04;3.77;;;3.47;;
17614;SDS011;8926;49.720;6.576;2023-04-29T06:18:29;4.77;;;4.47;;
17614;SDS011;8926;49.720;6.576;2023-04-29T06:20:55;5.10;;;4.80;;
17614;SDS011;8926;49.720;6.576;2023-04-29T06:23:20;5.93;;;5.43;;
17614;SDS011;8926;49.720;6.576;2023-04-29T06:25:45;6.43;;;5.93;;
17614;SDS011;8926;49.720;6.576;2023-04-29T06:28:11;7.10;;;6.53;;
17614;SDS011;8926;49.720;6.576;2023-04-29T06:30:36;6.27;;;5.77;;
17614;SDS011;8926;49.720;6.576;2023-04-29T06:33:01;5.30;;;4.90;;
17614;SDS011;8926;49.720;6.576;2023-04-29T06:35:27;5.17;;;4.77;;
17614;SDS011;8926;49.720;6.576;2023-04-29T06:37:52;4.70;;;4.40;;
17614;SDS011;8926;49.720;6.576;2023-04-29T06:40:18;5.43;;;5.03;;
17614;SDS011;8926;49.720;6.576;2023-04-29T06:42:43;4.80;;;4.40;;
17614;SDS011;8926;49.720;6.576;2023-04-29T06:45:08;4.17;;;3.87;;
17614;SDS011;8926;49.720;6.576;2023-04-29T06:47:34;4.10;;;3.80;;
17614;SDS011;8926;49.720;6.576;2023-04-29T06:49:59;5.40;;;5.00;;
17614;SDS011;8926;49.720;6.576;2023-04-29T06:52:25;6.20;;;5.70;;
17614;SDS011;8926;49.720;6.576;2023-04-29T06:54:50;4.93;;;4.53;;
17614;SDS011;8926;49.720;6.576;2023-04-29T06:57:15;4.33;;;3.93;;
17614;SDS011;8926;49.720;6.576;2023-04-29T06:59:41;4.03;;;3.73;;
17614;SDS011;8926;49.720;6.576;2023-04-29T07:02:06;3.50;;;3.30;;
17614;SDS011;8926;49.720;6.576;2023-04-29T07:04:31;3.90;;;3.60;;
17614;SDS011;8926;49.720;6.576;2023-04-29T07:06:57;3.33;;;3.03;;
17614;SDS011;8926;49.720;6.576;2023-04-29T07:09:23;3.97;;;3.67;;
17614;SDS011;8926;49.720;6.576;2023-04-29T07:11:50;4.40;;;4.00;;
17614;SDS011;8926;49.720;6.576;2023-04-29T07:14:15;4.23;;;3.83;;
17614;SDS011;8926;49.720;6.576;2023-04-29T07:16:41;3.27;;;3.07;;
17614;SDS011;8926;49.720;6.576;2023-04-29T07:19:06;3.60;;;3.30;;
17614;SDS011;8926;49.720;6.576;2023-04-29T07:21:31;2.90;;;2.70;;
17614;SDS011;8926;49.720;6.576;2023-04-29T07:23:57;3.30;;;3.10;;
17614;SDS011;8926;49.720;6.576;2023-04-29T07:26:25;4.40;;;4.00;;
17614;SDS011;8926;49.720;6.576;2023-04-29T07:28:50;3.70;;;3.40;;
17614;SDS011;8926;49.720;6.576;2023-04-29T07:31:15;4.50;;;3.90;;
17614;SDS011;8926;49.720;6.576;2023-04-29T07:33:41;3.10;;;2.90;;
17614;SDS011;8926;49.720;6.576;2023-04-29T07:36:06;2.50;;;2.40;;
17614;SDS011;8926;49.720;6.576;2023-04-29T07:38:33;2.60;;;2.40;;
17614;SDS011;8926;49.720;6.576;2023-04-29T07:40:58;3.03;;;2.83;;
17614;SDS011;8926;49.720;6.576;2023-04-29T07:43:24;3.40;;;3.20;;
17614;SDS011;8926;49.720;6.576;2023-04-29T07:45:49;3.67;;;3.37;;
17614;SDS011;8926;49.720;6.576;2023-04-29T07:48:15;3.70;;;3.40;;
17614;SDS011;8926;49.720;6.576;2023-04-29T07:50:40;3.60;;;3.30;;
17614;SDS011;8926;49.720;6.576;2023-04-29T07:53:06;3.40;;;3.10;;
17614;SDS011;8926;49.720;6.576;2023-04-29T07:55:32;2.77;;;2.57;;
17614;SDS011;8926;49.720;6.576;2023-04-29T07:57:58;2.70;;;2.47;;
17614;SDS011;8926;49.720;6.576;2023-04-29T08:00:23;3.20;;;2.57;;
17614;SDS011;8926;49.720;6.576;2023-04-29T08:02:52;2.40;;;2.20;;
17614;SDS011;8926;49.720;6.576;2023-04-29T08:05:19;2.10;;;1.90;;
17614;SDS011;8926;49.720;6.576;2023-04-29T08:07:45;2.87;;;2.67;;
17614;SDS011;8926;49.720;6.576;2023-04-29T08:10:12;2.37;;;2.27;;
17614;SDS011;8926;49.720;6.576;2023-04-29T08:12:37;3.37;;;3.07;;
17614;SDS011;8926;49.720;6.576;2023-04-29T08:15:03;2.83;;;2.63;;
17614;SDS011;8926;49.720;6.576;2023-04-29T08:17:29;3.60;;;3.30;;
17614;SDS011;8926;49.720;6.576;2023-04-29T08:19:54;3.50;;;3.20;;
17614;SDS011;8926;49.720;6.576;2023-04-29T08:22:19;3.17;;;2.97;;
17614;SDS011;8926;49.720;6.576;2023-04-29T08:24:45;2.70;;;2.50;;
17614;SDS011;8926;49.720;6.576;2023-04-29T08:27:10;3.23;;;3.03;;
17614;SDS011;8926;49.720;6.576;2023-04-29T08:29:35;2.80;;;2.60;;
17614;SDS011;8926;49.720;6.576;2023-04-29T08:32:01;2.57;;;2.37;;
17614;SDS011;8926;49.720;6.576;2023-04-29T08:34:26;2.53;;;2.33;;
17614;SDS011;8926;49.720;6.576;2023-04-29T08:36:52;2.13;;;2.03;;
17614;SDS011;8926;49.720;6.576;2023-04-29T08:39:17;2.30;;;2.20;;
17614;SDS011;8926;49.720;6.576;2023-04-29T08:41:42;2.60;;;2.40;;
17614;SDS011;8926;49.720;6.576;2023-04-29T08:44:13;2.27;;;2.10;;
17614;SDS011;8926;49.720;6.576;2023-04-29T08:46:39;2.20;;;2.10;;
17614;SDS011;8926;49.720;6.576;2023-04-29T08:49:05;2.60;;;2.40;;
17614;SDS011;8926;49.720;6.576;2023-04-29T08:51:31;3.00;;;2.80;;
17614;SDS011;8926;49.720;6.576;2023-04-29T08:53:57;3.10;;;2.87;;
17614;SDS011;8926;49.720;6.576;2023-04-29T08:56:23;2.30;;;2.20;;
17614;SDS011;8926;49.720;6.576;2023-04-29T08:58:49;2.60;;;2.40;;
17614;SDS011;8926;49.720;6.576;2023-04-29T09:01:22;2.73;;;2.53;;
17614;SDS011;8926;49.720;6.576;2023-04-29T09:06:36;1.90;;;1.80;;
17614;SDS011;8926;49.720;6.576;2023-04-29T09:09:02;2.10;;;2.00;;
17614;SDS011;8926;49.720;6.576;2023-04-29T09:11:27;2.57;;;2.37;;
17614;SDS011;8926;49.720;6.576;2023-04-29T09:14:00;2.60;;;2.40;;
17614;SDS011;8926;49.720;6.576;2023-04-29T09:16:29;2.70;;;2.50;;
17614;SDS011;8926;49.720;6.576;2023-04-29T09:18:54;2.90;;;2.53;;
17614;SDS011;8926;49.720;6.576;2023-04-29T09:21:24;2.03;;;1.93;;
17614;SDS011;8926;49.720;6.576;2023-04-29T09:23:56;2.47;;;2.27;;
17614;SDS011;8926;49.720;6.576;2023-04-29T09:26:24;3.00;;;2.80;;
17614;SDS011;8926;49.720;6.576;2023-04-29T09:29:06;2.50;;;2.30;;
17614;SDS011;8926;49.720;6.576;2023-04-29T09:31:33;2.23;;;2.10;;
17614;SDS011;8926;49.720;6.576;2023-04-29T09:33:58;2.23;;;2.13;;
17614;SDS011;8926;49.720;6.576;2023-04-29T09:36:43;1.87;;;1.77;;
17614;SDS011;8926;49.720;6.576;2023-04-29T09:39:14;2.50;;;2.30;;
17614;SDS011;8926;49.720;6.576;2023-04-29T09:41:56;3.20;;;2.90;;
17614;SDS011;8926;49.720;6.576;2023-04-29T09:44:24;2.13;;;2.03;;
17614;SDS011;8926;49.720;6.576;2023-04-29T09:47:00;2.27;;;2.17;;
17614;SDS011;8926;49.720;6.576;2023-04-29T09:49:30;2.77;;;2.57;;
17614;SDS011;8926;49.720;6.576;2023-04-29T09:52:07;2.00;;;1.90;;
17614;SDS011;8926;49.720;6.576;2023-04-29T09:54:37;1.90;;;1.80;;
17614;SDS011;8926;49.720;6.576;2023-04-29T09:57:05;1.90;;;1.80;;
17614;SDS011;8926;49.720;6.576;2023-04-29T09:59:31;2.10;;;2.00;;
17614;SDS011;8926;49.720;6.576;2023-04-29T10:02:00;3.20;;;3.00;;
17614;SDS011;8926;49.720;6.576;2023-04-29T10:04:27;2.20;;;2.10;;
17614;SDS011;8926;49.720;6.576;2023-04-29T10:06:56;2.80;;;2.60;;
17614;SDS011;8926;49.720;6.576;2023-04-29T10:09:24;2.57;;;2.40;;
17614;SDS011;8926;49.720;6.576;2023-04-29T10:11:50;2.30;;;2.20;;
17614;SDS011;8926;49.720;6.576;2023-04-29T10:14:18;3.30;;;3.10;;
17614;SDS011;8926;49.720;6.576;2023-04-29T10:21:58;2.40;;;2.30;;
17614;SDS011;8926;49.720;6.576;2023-04-29T10:24:28;2.57;;;2.37;;
17614;SDS011;8926;49.720;6.576;2023-04-29T10:26:54;2.00;;;1.90;;
17614;SDS011;8926;49.720;6.576;2023-04-29T10:29:21;2.53;;;2.33;;
17614;SDS011;8926;49.720;6.576;2023-04-29T10:31:47;3.10;;;2.87;;
17614;SDS011;8926;49.720;6.576;2023-04-29T10:34:13;3.20;;;3.00;;
17614;SDS011;8926;49.720;6.576;2023-04-29T10:36:41;3.10;;;2.90;;
17614;SDS011;8926;49.720;6.576;2023-04-29T10:39:08;2.50;;;2.30;;
17614;SDS011;8926;49.720;6.576;2023-04-29T10:41:42;3.47;;;3.20;;
17614;SDS011;8926;49.720;6.576;2023-04-29T10:44:11;3.50;;;3.20;;
17614;SDS011;8926;49.720;6.576;2023-04-29T10:46:37;2.67;;;2.47;;
17614;SDS011;8926;49.720;6.576;2023-04-29T10:49:02;2.50;;;2.40;;
17614;SDS011;8926;49.720;6.576;2023-04-29T10:51:31;3.30;;;3.10;;
17614;SDS011;8926;49.720;6.576;2023-04-29T10:59:15;2.73;;;2.53;;
17614;SDS011;8926;49.720;6.576;2023-04-29T11:01:45;2.90;;;2.67;;
17614;SDS011;8926;49.720;6.576;2023-04-29T11:04:11;2.13;;;2.03;;
17614;SDS011;8926;49.720;6.576;2023-04-29T11:06:38;2.20;;;2.10;;
17614;SDS011;8926;49.720;6.576;2023-04-29T11:09:12;1.80;;;1.70;;
17614;SDS011;8926;49.720;6.576;2023-04-29T11:11:42;1.90;;;1.80;;
17614;SDS011;8926;49.720;6.576;2023-04-29T11:14:09;1.90;;;1.80;;
17614;SDS011;8926;49.720;6.576;2023-04-29T11:16:36;2.07;;;1.97;;
17614;SDS011;8926;49.720;6.576;2023-04-29T11:19:06;2.30;;;2.20;;
17614;SDS011;8926;49.720;6.576;2023-04-29T11:21:36;2.80;;;2.60;;
17614;SDS011;8926;49.720;6.576;2023-04-29T11:24:02;2.00;;;1.90;;
17614;SDS011;8926;49.720;6.576;2023-04-29T11:26:30;2.30;;;2.20;;
17614;SDS011;8926;49.720;6.576;2023-04-29T11:28:56;1.93;;;1.83;;
17614;SDS011;8926;49.720;6.576;2023-04-29T11:31:25;1.70;;;1.60;;
17614;SDS011;8926;49.720;6.576;2023-04-29T11:33:57;2.17;;;2.07;;
17614;SDS011;8926;49.720;6.576;2023-04-29T11:36:23;2.30;;;2.13;;
17614;SDS011;8926;49.720;6.576;2023-04-29T11:38:48;2.20;;;2.10;;
17614;SDS011;8926;49.720;6.576;2023-04-29T11:41:14;2.30;;;2.20;;
17614;SDS011;8926;49.720;6.576;2023-04-29T11:43:40;1.77;;;1.67;;
17614;SDS011;8926;49.720;6.576;2023-04-29T11:46:14;1.80;;;1.70;;
17614;SDS011;8926;49.720;6.576;2023-04-29T11:48:46;1.60;;;1.50;;
17614;SDS011;8926;49.720;6.576;2023-04-29T11:51:12;1.17;;;1.17;;
17614;SDS011;8926;49.720;6.576;2023-04-29T11:53:38;1.20;;;1.20;;
17614;SDS011;8926;49.720;6.576;2023-04-29T11:56:03;1.50;;;1.40;;
17614;SDS011;8926;49.720;6.576;2023-04-29T11:58:29;1.23;;;1.23;;
17614;SDS011;8926;49.720;6.576;2023-04-29T12:00:54;2.20;;;2.10;;
17614;SDS011;8926;49.720;6.576;2023-04-29T12:03:22;2.27;;;2.17;;
17614;SDS011;8926;49.720;6.576;2023-04-29T12:05:51;2.10;;;2.00;;
17614;SDS011;8926;49.720;6.576;2023-04-29T12:08:20;1.90;;;1.80;;
17614;SDS011;8926;49.720;6.576;2023-04-29T12:10:46;2.53;;;2.10;;
17614;SDS011;8926;49.720;6.576;2023-04-29T12:13:12;1.50;;;1.40;;
17614;SDS011;8926;49.720;6.576;2023-04-29T12:15:38;2.40;;;2.30;;
17614;SDS011;8926;49.720;6.576;2023-04-29T12:18:03;2.60;;;2.40;;
17614;SDS011;8926;49.720;6.576;2023-04-29T12:20:29;2.47;;;2.37;;
17614;SDS011;8926;49.720;6.576;2023-04-29T12:22:55;2.43;;;2.33;;
17614;SDS011;8926;49.720;6.576;2023-04-29T12:25:23;2.70;;;2.60;;
17614;SDS011;8926;49.720;6.576;2023-04-29T12:27:50;2.20;;;2.10;;
17614;SDS011;8926;49.720;6.576;2023-04-29T12:30:16;1.60;;;1.50;;
17614;SDS011;8926;49.720;6.576;2023-04-29T12:32:41;1.77;;;1.63;;
17614;SDS011;8926;49.720;6.576;2023-04-29T12:35:13;1.40;;;1.30;;
17614;SDS011;8926;49.720;6.576;2023-04-29T12:37:41;1.70;;;1.60;;
17614;SDS011;8926;49.720;6.576;2023-04-29T12:40:06;1.43;;;1.33;;
17614;SDS011;8926;49.720;6.576;2023-04-29T12:42:32;1.70;;;1.60;;
17614;SDS011;8926;49.720;6.576;2023-04-29T12:45:00;1.50;;;1.40;;
17614;SDS011;8926;49.720;6.576;2023-04-29T12:47:29;1.30;;;1.30;;
17614;SDS011;8926;49.720;6.576;2023-04-29T12:49:57;1.10;;;1.10;;
17614;SDS011;8926;49.720;6.576;2023-04-29T12:52:22;1.20;;;1.20;;
17614;SDS011;8926;49.720;6.576;2023-04-29T12:54:48;1.03;;;1.03;;
17614;SDS011;8926;49.720;6.576;2023-04-29T12:57:13;1.80;;;1.70;;
17614;SDS011;8926;49.720;6.576;2023-04-29T12:59:39;1.70;;;1.60;;
17614;SDS011;8926;49.720;6.576;2023-04-29T13:02:05;1.10;;;1.10;;
17614;SDS011;8926;49.720;6.576;2023-04-29T13:04:31;1.30;;;1.30;;
17614;SDS011;8926;49.720;6.576;2023-04-29T13:06:56;0.97;;;0.97;;
17614;SDS011;8926;49.720;6.576;2023-04-29T13:09:26;1.00;;;1.00;;
17614;SDS011;8926;49.720;6.576;2023-04-29T13:11:52;1.20;;;1.20;;
17614;SDS011;8926;49.720;6.576;2023-04-29T13:14:17;2.00;;;1.90;;
17614;SDS011;8926;49.720;6.576;2023-04-29T13:16:43;1.53;;;1.43;;
17614;SDS011;8926;49.720;6.576;2023-04-29T13:19:09;1.27;;;1.23;;
17614;SDS011;8926;49.720;6.576;2023-04-29T13:21:35;1.13;;;1.13;;
17614;SDS011;8926;49.720;6.576;2023-04-29T13:24:00;0.90;;;0.90;;
17614;SDS011;8926;49.720;6.576;2023-04-29T13:26:25;0.80;;;0.80;;
17614;SDS011;8926;49.720;6.576;2023-04-29T13:28:51;1.40;;;1.30;;
17614;SDS011;8926;49.720;6.576;2023-04-29T13:31:16;1.80;;;1.70;;
17614;SDS011;8926;49.720;6.576;2023-04-29T13:33:41;1.40;;;1.40;;
17614;SDS011;8926;49.720;6.576;2023-04-29T13:36:07;1.50;;;1.50;;
17614;SDS011;8926;49.720;6.576;2023-04-29T13:38:33;1.70;;;1.60;;
17614;SDS011;8926;49.720;6.576;2023-04-29T13:40:58;1.50;;;1.50;;
17614;SDS011;8926;49.720;6.576;2023-04-29T13:43:24;1.60;;;1.50;;
17614;SDS011;8926;49.720;6.576;2023-04-29T13:45:49;1.40;;;1.40;;
17614;SDS011;8926;49.720;6.576;2023-04-29T13:48:15;1.70;;;1.60;;
17614;SDS011;8926;49.720;6.576;2023-04-29T13:50:40;1.40;;;1.30;;
17614;SDS011;8926;49.720;6.576;2023-04-29T13:53:06;1.17;;;1.17;;
17614;SDS011;8926;49.720;6.576;2023-04-29T13:55:32;1.50;;;1.40;;
17614;SDS011;8926;49.720;6.576;2023-04-29T13:57:59;1.67;;;1.57;;
17614;SDS011;8926;49.720;6.576;2023-04-29T14:00:25;1.33;;;1.33;;
17614;SDS011;8926;49.720;6.576;2023-04-29T14:02:50;1.40;;;1.40;;
17614;SDS011;8926;49.720;6.576;2023-04-29T14:05:15;1.13;;;1.13;;
17614;SDS011;8926;49.720;6.576;2023-04-29T14:07:41;1.70;;;1.60;;
17614;SDS011;8926;49.720;6.576;2023-04-29T14:10:06;2.10;;;2.00;;
17614;SDS011;8926;49.720;6.576;2023-04-29T14:12:32;1.50;;;1.40;;
17614;SDS011;8926;49.720;6.576;2023-04-29T14:14:57;2.10;;;2.00;;
17614;SDS011;8926;49.720;6.576;2023-04-29T14:17:22;2.83;;;2.63;;
17614;SDS011;8926;49.720;6.576;2023-04-29T14:19:47;2.40;;;2.30;;
17614;SDS011;8926;49.720;6.576;2023-04-29T14:22:13;2.53;;;2.40;;
17614;SDS011;8926;49.720;6.576;2023-04-29T14:24:38;2.70;;;2.50;;
17614;SDS011;8926;49.720;6.576;2023-04-29T14:27:03;2.30;;;2.20;;
17614;SDS011;8926;49.720;6.576;2023-04-29T14:29:29;2.30;;;2.17;;
17614;SDS011;8926;49.720;6.576;2023-04-29T14:31:54;2.33;;;2.23;;
17614;SDS011;8926;49.720;6.576;2023-04-29T14:34:20;1.80;;;1.70;;
17614;SDS011;8926;49.720;6.576;2023-04-29T14:36:45;2.00;;;1.90;;
17614;SDS011;8926;49.720;6.576;2023-04-29T14:39:11;1.93;;;1.83;;
17614;SDS011;8926;49.720;6.576;2023-04-29T14:41:37;2.13;;;2.03;;
17614;SDS011;8926;49.720;6.576;2023-04-29T14:44:02;2.00;;;1.90;;
17614;SDS011;8926;49.720;6.576;2023-04-29T14:46:27;1.73;;;1.67;;
17614;SDS011;8926;49.720;6.576;2023-04-29T14:48:53;2.23;;;2.13;;
17614;SDS011;8926;49.720;6.576;2023-04-29T14:51:18;2.40;;;2.30;;
17614;SDS011;8926;49.720;6.576;2023-04-29T14:53:44;2.60;;;2.40;;
17614;SDS011;8926;49.720;6.576;2023-04-29T14:56:10;2.10;;;2.00;;
17614;SDS011;8926;49.720;6.576;2023-04-29T14:58:35;2.17;;;2.07;;
17614;SDS011;8926;49.720;6.576;2023-04-29T15:01:00;3.13;;;2.93;;
17614;SDS011;8926;49.720;6.576;2023-04-29T15:03:26;2.37;;;2.27;;
17614;SDS011;8926;49.720;6.576;2023-04-29T15:05:51;2.30;;;2.20;;
17614;SDS011;8926;49.720;6.576;2023-04-29T15:08:16;2.10;;;2.00;;
17614;SDS011;8926;49.720;6.576;2023-04-29T15:10:43;2.33;;;2.23;;
17614;SDS011;8926;49.720;6.576;2023-04-29T15:13:10;1.80;;;1.70;;
17614;SDS011;8926;49.720;6.576;2023-04-29T15:15:36;2.10;;;2.00;;
17614;SDS011;8926;49.720;6.576;2023-04-29T15:18:01;3.07;;;1.97;;
17614;SDS011;8926;49.720;6.576;2023-04-29T15:20:26;2.27;;;2.17;;
17614;SDS011;8926;49.720;6.576;2023-04-29T15:22:52;2.20;;;2.10;;
17614;SDS011;8926;49.720;6.576;2023-04-29T15:25:17;2.10;;;2.00;;